Time;durP1;ratioP1;P1;durP2;ratioP2;P2;SDS_P1;SDS_P2;PMS_P1;PMS_P2;Temp;Humidity;BMP_temperature;BMP_pressure;BME280_temperature;BME280_humidity;BME280_pressure;Samples;Min_cycle;Max_cycle;Signal;HPM_P1;HPM_P2
2022/05/06 00:01:33;;;;;;;7.73;6.40;;;;;;;;;;5010914;28;20437;-52
2022/05/06 00:03:59;;;;;;;12.33;6.03;;;;;;;;;;5010819;28;20456;-52
2022/05/06 00:06:25;;;;;;;7.00;6.30;;;;;;;;;;5010911;28;20420;-52
2022/05/06 00:08:54;;;;;;;7.40;6.70;;;;;;;;;;5010910;28;20406;-52
2022/05/06 00:11:20;;;;;;;7.57;6.60;;;;;;;;;;5010689;28;20445;-56
2022/05/06 00:13:46;;;;;;;7.23;6.10;;;;;;;;;;5010676;28;20834;-52
2022/05/06 00:16:15;;;;;;;7.20;6.50;;;;;;;;;;5010726;28;20513;-55
2022/05/06 00:18:41;;;;;;;7.00;6.27;;;;;;;;;;5010766;28;20432;-54
2022/05/06 00:21:07;;;;;;;8.90;7.27;;;;;;;;;;5010490;28;20461;-56
2022/05/06 00:23:36;;;;;;;10.27;6.37;;;;;;;;;;5010526;28;20972;-53
2022/05/06 00:26:03;;;;;;;8.60;6.27;;;;;;;;;;5010564;28;20421;-51
2022/05/06 00:28:30;;;;;;;8.33;6.73;;;;;;;;;;5010285;28;20431;-55
2022/05/06 00:30:56;;;;;;;7.10;6.00;;;;;;;;;;5010579;28;20471;-66
2022/05/06 00:33:24;;;;;;;7.70;6.50;;;;;;;;;;5010513;28;20433;-58
2022/05/06 00:36:00;;;;;;;7.40;6.50;;;;;;;;;;5010468;28;20410;-60
2022/05/06 00:38:26;;;;;;;6.93;6.20;;;;;;;;;;5010346;28;20409;-61
2022/05/06 00:40:52;;;;;;;7.20;6.50;;;;;;;;;;5010277;28;20406;-60
2022/05/06 00:43:19;;;;;;;6.83;5.90;;;;;;;;;;5010446;28;20807;-59
2022/05/06 00:45:51;;;;;;;10.13;6.60;;;;;;;;;;5010437;28;20473;-63
2022/05/06 00:48:18;;;;;;;10.10;6.60;;;;;;;;;;4992931;28;20771;-67
2022/05/06 00:50:44;;;;;;;6.77;6.17;;;;;;;;;;5010411;28;20463;-62
2022/05/06 00:53:10;;;;;;;12.43;6.63;;;;;;;;;;5010056;28;20409;-66
2022/05/06 00:55:37;;;;;;;6.40;5.90;;;;;;;;;;5010157;28;20504;-60
2022/05/06 00:58:03;;;;;;;7.10;6.50;;;;;;;;;;5010087;28;20405;-62
2022/05/06 01:00:29;;;;;;;8.93;7.00;;;;;;;;;;5010145;28;20416;-66
2022/05/06 01:02:56;;;;;;;9.17;6.60;;;;;;;;;;5010161;28;20421;-66
2022/05/06 01:05:22;;;;;;;6.97;6.37;;;;;;;;;;5009977;28;20504;-53
2022/05/06 01:07:50;;;;;;;6.63;6.07;;;;;;;;;;5010063;28;20440;-68
2022/05/06 01:10:17;;;;;;;7.53;6.47;;;;;;;;;;4992589;28;20433;-60
2022/05/06 01:12:46;;;;;;;6.90;6.30;;;;;;;;;;5010257;28;20402;-62
2022/05/06 01:15:19;;;;;;;8.47;6.77;;;;;;;;;;5010358;28;20418;-63
2022/05/06 01:17:46;;;;;;;9.90;6.87;;;;;;;;;;5010361;28;20398;-63
2022/05/06 01:20:17;;;;;;;7.30;6.63;;;;;;;;;;5009958;28;20510;-62
2022/05/06 01:22:52;;;;;;;6.97;6.27;;;;;;;;;;4992536;28;20422;-58
2022/05/06 01:25:20;;;;;;;7.70;6.50;;;;;;;;;;5009675;28;21047;-55
2022/05/06 01:27:52;;;;;;;7.23;6.50;;;;;;;;;;5009715;28;20547;-52
2022/05/06 01:30:24;;;;;;;7.17;6.57;;;;;;;;;;5009679;28;20418;-57
2022/05/06 01:32:51;;;;;;;7.20;6.60;;;;;;;;;;5009735;28;20917;-67
2022/05/06 01:35:19;;;;;;;7.03;6.43;;;;;;;;;;5009727;28;20413;-65
2022/05/06 01:37:47;;;;;;;12.07;7.27;;;;;;;;;;5009742;28;20409;-67
2022/05/06 01:40:15;;;;;;;10.40;7.03;;;;;;;;;;5009842;28;20504;-66
2022/05/06 01:42:44;;;;;;;9.27;7.20;;;;;;;;;;5013100;28;20421;-66
2022/05/06 01:45:10;;;;;;;8.23;6.63;;;;;;;;;;5012985;28;20476;-68
2022/05/06 01:47:37;;;;;;;8.33;7.03;;;;;;;;;;5013007;28;20405;-61
2022/05/06 01:50:04;;;;;;;9.10;6.87;;;;;;;;;;4995351;28;20932;-58
2022/05/06 01:52:31;;;;;;;10.43;7.07;;;;;;;;;;5012892;28;20485;-64
2022/05/06 01:54:57;;;;;;;16.43;6.50;;;;;;;;;;5012874;28;20937;-65
2022/05/06 01:57:23;;;;;;;9.07;7.30;;;;;;;;;;5012898;28;20436;-57
2022/05/06 01:59:49;;;;;;;8.20;6.90;;;;;;;;;;4995164;28;20457;-59
2022/05/06 02:02:15;;;;;;;7.33;6.70;;;;;;;;;;5013142;28;20792;-62
2022/05/06 02:07:26;;;;;;;6.87;6.23;;;;;;;;;;5012770;28;20420;-62
2022/05/06 02:09:52;;;;;;;9.57;7.37;;;;;;;;;;4994959;28;20447;-54
2022/05/06 02:12:18;;;;;;;9.83;7.00;;;;;;;;;;5012590;28;20418;-58
2022/05/06 02:14:44;;;;;;;11.50;7.30;;;;;;;;;;4995023;28;20513;-62
2022/05/06 02:17:10;;;;;;;7.30;6.70;;;;;;;;;;5012594;28;20424;-59
2022/05/06 02:19:36;;;;;;;12.00;7.83;;;;;;;;;;5012557;28;20398;-66
2022/05/06 02:22:02;;;;;;;9.07;7.63;;;;;;;;;;5012253;28;20461;-57
2022/05/06 02:24:28;;;;;;;10.37;7.33;;;;;;;;;;5012417;28;20556;-62
2022/05/06 02:26:54;;;;;;;7.97;6.60;;;;;;;;;;5012340;28;20402;-53
2022/05/06 02:29:20;;;;;;;7.60;7.00;;;;;;;;;;5012294;28;20522;-53
2022/05/06 02:34:31;;;;;;;8.03;7.20;;;;;;;;;;5012661;28;20457;-52
2022/05/06 02:36:57;;;;;;;9.40;8.17;;;;;;;;;;5012153;28;20410;-52
2022/05/06 02:39:23;;;;;;;8.80;7.90;;;;;;;;;;5012146;28;20409;-53
2022/05/06 02:41:49;;;;;;;12.20;7.37;;;;;;;;;;5012120;28;20428;-55
2022/05/06 02:44:15;;;;;;;8.73;7.93;;;;;;;;;;5012309;28;20826;-52
2022/05/06 02:46:41;;;;;;;9.87;8.50;;;;;;;;;;5012310;28;20422;-57
2022/05/06 02:49:08;;;;;;;9.33;7.70;;;;;;;;;;5012054;28;20414;-56
2022/05/06 02:51:34;;;;;;;12.40;8.47;;;;;;;;;;5011948;28;20418;-53
2022/05/06 02:54:00;;;;;;;12.50;7.13;;;;;;;;;;5011973;28;20410;-55
2022/05/06 02:56:26;;;;;;;12.97;7.80;;;;;;;;;;5011882;28;20421;-50
2022/05/06 02:58:52;;;;;;;8.83;8.03;;;;;;;;;;5011979;28;20762;-52
2022/05/06 03:01:18;;;;;;;8.77;7.87;;;;;;;;;;5011902;28;20420;-52
2022/05/06 03:03:44;;;;;;;15.20;8.07;;;;;;;;;;5011819;28;20739;-53
2022/05/06 03:06:10;;;;;;;14.93;7.50;;;;;;;;;;5011822;28;20444;-53
2022/05/06 03:08:37;;;;;;;8.93;7.90;;;;;;;;;;5011772;28;20410;-57
2022/05/06 03:11:03;;;;;;;9.10;7.77;;;;;;;;;;5011655;28;20413;-53
2022/05/06 03:13:29;;;;;;;8.97;7.80;;;;;;;;;;5011698;28;20747;-53
2022/05/06 03:15:55;;;;;;;8.77;7.50;;;;;;;;;;5011643;28;20466;-53
2022/05/06 03:18:21;;;;;;;10.60;8.10;;;;;;;;;;5011668;28;20402;-59
2022/05/06 03:20:47;;;;;;;20.33;8.03;;;;;;;;;;5011256;28;20826;-55
2022/05/06 03:23:16;;;;;;;8.40;7.53;;;;;;;;;;5011654;28;20451;-57
2022/05/06 03:25:42;;;;;;;14.67;8.80;;;;;;;;;;5011625;28;20987;-64
2022/05/06 03:28:08;;;;;;;9.50;8.50;;;;;;;;;;4993801;28;20501;-70
2022/05/06 03:30:47;;;;;;;10.10;7.73;;;;;;;;;;5011378;28;20410;-51
2022/05/06 03:33:14;;;;;;;9.10;8.20;;;;;;;;;;5011484;28;20443;-54
2022/05/06 03:35:40;;;;;;;10.77;8.40;;;;;;;;;;5011181;28;20413;-56
2022/05/06 03:38:07;;;;;;;17.87;8.50;;;;;;;;;;4993595;28;20417;-58
2022/05/06 03:40:33;;;;;;;9.60;8.60;;;;;;;;;;5011085;28;20417;-52
2022/05/06 03:42:59;;;;;;;13.47;8.00;;;;;;;;;;5011184;28;20401;-52
2022/05/06 03:45:31;;;;;;;10.37;8.10;;;;;;;;;;5011063;28;20476;-53
2022/05/06 03:47:58;;;;;;;9.77;8.80;;;;;;;;;;4993488;28;20425;-55
2022/05/06 03:53:09;;;;;;;10.53;8.90;;;;;;;;;;5010972;28;20816;-68
2022/05/06 03:55:35;;;;;;;11.50;8.50;;;;;;;;;;5010997;28;20406;-63
2022/05/06 03:58:01;;;;;;;9.73;8.53;;;;;;;;;;5010781;28;20413;-64
2022/05/06 04:00:27;;;;;;;11.20;8.07;;;;;;;;;;5011005;28;20405;-62
2022/05/06 04:02:53;;;;;;;9.83;8.23;;;;;;;;;;5010709;28;20474;-56
2022/05/06 04:05:19;;;;;;;9.57;8.27;;;;;;;;;;5010427;28;20465;-53
2022/05/06 04:07:45;;;;;;;9.47;8.47;;;;;;;;;;5011130;28;20528;-56
2022/05/06 04:10:11;;;;;;;9.37;8.47;;;;;;;;;;5011108;28;20418;-60
2022/05/06 04:12:38;;;;;;;14.70;10.00;;;;;;;;;;5010754;28;20401;-58
2022/05/06 04:15:06;;;;;;;12.03;8.90;;;;;;;;;;5010679;28;20405;-57
2022/05/06 04:17:32;;;;;;;10.50;8.63;;;;;;;;;;5010682;28;20410;-61
2022/05/06 04:25:30;;;;;;;12.30;8.77;;;;;;;;;;5010424;28;20841;-58
2022/05/06 04:27:56;;;;;;;13.10;8.77;;;;;;;;;;5010586;28;20906;-54
2022/05/06 04:30:22;;;;;;;10.90;7.83;;;;;;;;;;5010444;28;20407;-62
2022/05/06 04:32:48;;;;;;;12.00;8.70;;;;;;;;;;5010391;28;20425;-55
2022/05/06 04:35:15;;;;;;;9.97;8.33;;;;;;;;;;5010426;28;20906;-61
2022/05/06 04:37:42;;;;;;;15.33;10.27;;;;;;;;;;5010572;28;20402;-58
2022/05/06 04:40:08;;;;;;;16.70;10.37;;;;;;;;;;5010320;28;20435;-65
2022/05/06 04:42:34;;;;;;;13.97;8.87;;;;;;;;;;5010318;28;20398;-67
2022/05/06 04:45:00;;;;;;;17.40;10.00;;;;;;;;;;5010291;28;20467;-55
2022/05/06 04:47:26;;;;;;;13.03;9.50;;;;;;;;;;5010134;28;20473;-59
2022/05/06 04:49:52;;;;;;;12.30;10.03;;;;;;;;;;5010075;28;20402;-61
2022/05/06 04:52:18;;;;;;;16.47;11.67;;;;;;;;;;5010104;28;20410;-56
2022/05/06 04:54:44;;;;;;;16.07;10.63;;;;;;;;;;5010102;28;20434;-67
2022/05/06 04:57:10;;;;;;;11.47;9.33;;;;;;;;;;5010127;28;20898;-55
2022/05/06 04:59:36;;;;;;;11.40;8.90;;;;;;;;;;5009929;28;20484;-52
2022/05/06 05:02:02;;;;;;;13.37;10.03;;;;;;;;;;5009759;28;20413;-57
2022/05/06 05:04:29;;;;;;;22.20;10.47;;;;;;;;;;5009634;28;20465;-57
2022/05/06 05:06:55;;;;;;;15.43;10.07;;;;;;;;;;5009836;28;20406;-58
2022/05/06 05:09:21;;;;;;;14.47;8.70;;;;;;;;;;5009788;28;20469;-57
2022/05/06 05:11:47;;;;;;;13.33;9.00;;;;;;;;;;5009859;28;20409;-53
2022/05/06 05:14:14;;;;;;;14.83;9.40;;;;;;;;;;5009854;28;20418;-55
2022/05/06 05:16:40;;;;;;;11.67;9.13;;;;;;;;;;5011983;28;20781;-57
2022/05/06 05:19:06;;;;;;;17.37;9.57;;;;;;;;;;5013316;28;21020;-56
2022/05/06 05:21:32;;;;;;;18.87;9.90;;;;;;;;;;5013120;28;20999;-55
2022/05/06 05:23:58;;;;;;;10.33;9.23;;;;;;;;;;5013063;28;20414;-55
2022/05/06 05:26:25;;;;;;;17.33;9.43;;;;;;;;;;4995627;28;20436;-59
2022/05/06 05:28:51;;;;;;;17.60;10.23;;;;;;;;;;5013029;28;20440;-56
2022/05/06 05:31:17;;;;;;;13.27;9.27;;;;;;;;;;5013098;28;20413;-59
2022/05/06 05:33:43;;;;;;;11.27;9.37;;;;;;;;;;5013130;28;20501;-61
2022/05/06 05:36:09;;;;;;;10.80;9.53;;;;;;;;;;5012812;28;20421;-54
2022/05/06 05:38:35;;;;;;;15.13;8.67;;;;;;;;;;4995320;28;20413;-63
2022/05/06 05:41:01;;;;;;;16.20;9.43;;;;;;;;;;5012908;28;20974;-59
2022/05/06 05:48:57;;;;;;;14.80;10.10;;;;;;;;;;5012704;28;20445;-56
2022/05/06 05:51:23;;;;;;;13.80;10.53;;;;;;;;;;5012841;28;20409;-56
2022/05/06 05:53:49;;;;;;;23.30;10.20;;;;;;;;;;4995226;28;20551;-53
2022/05/06 05:56:15;;;;;;;14.73;10.17;;;;;;;;;;5012952;28;20901;-53
2022/05/06 05:58:41;;;;;;;12.30;10.10;;;;;;;;;;5013002;28;20416;-54
2022/05/06 06:01:08;;;;;;;14.03;11.57;;;;;;;;;;5012513;28;20409;-55
2022/05/06 06:03:34;;;;;;;20.93;11.60;;;;;;;;;;5012752;28;20488;-54
2022/05/06 06:06:00;;;;;;;18.17;10.07;;;;;;;;;;5012508;28;20529;-54
2022/05/06 06:08:26;;;;;;;16.63;11.17;;;;;;;;;;5012584;28;20410;-59
2022/05/06 06:10:53;;;;;;;12.93;11.27;;;;;;;;;;4995246;28;20422;-55
2022/05/06 06:13:19;;;;;;;14.03;10.53;;;;;;;;;;5012474;28;20417;-55
2022/05/06 06:15:45;;;;;;;20.93;11.10;;;;;;;;;;5012459;28;20425;-54
2022/05/06 06:18:15;;;;;;;18.87;11.00;;;;;;;;;;5012546;28;20408;-55
2022/05/06 06:20:41;;;;;;;16.10;12.40;;;;;;;;;;5012299;28;20464;-63
2022/05/06 06:23:07;;;;;;;13.60;10.50;;;;;;;;;;5012497;28;20405;-61
2022/05/06 06:25:34;;;;;;;16.50;10.97;;;;;;;;;;5012248;28;21002;-52
2022/05/06 06:28:00;;;;;;;23.20;11.20;;;;;;;;;;5011825;28;20497;-55
2022/05/06 06:30:26;;;;;;;12.83;10.43;;;;;;;;;;5012128;28;20414;-54
2022/05/06 06:32:52;;;;;;;13.30;10.90;;;;;;;;;;5012296;28;20414;-54
2022/05/06 06:35:18;;;;;;;15.93;11.40;;;;;;;;;;5012168;28;20414;-53
2022/05/06 06:37:45;;;;;;;14.13;11.10;;;;;;;;;;5012301;28;20542;-56
2022/05/06 06:40:11;;;;;;;25.77;11.67;;;;;;;;;;5011961;28;20406;-56
2022/05/06 06:42:37;;;;;;;15.80;11.70;;;;;;;;;;5012245;28;20918;-53
2022/05/06 06:45:04;;;;;;;15.83;11.10;;;;;;;;;;4994317;28;20837;-58
2022/05/06 06:47:30;;;;;;;16.20;11.60;;;;;;;;;;5011926;28;20405;-52
2022/05/06 06:49:58;;;;;;;16.87;11.67;;;;;;;;;;5012066;28;20808;-53
2022/05/06 06:52:24;;;;;;;19.03;11.23;;;;;;;;;;5012090;28;20401;-58
2022/05/06 06:54:50;;;;;;;21.30;11.67;;;;;;;;;;5011788;28;20424;-54
2022/05/06 06:57:16;;;;;;;18.83;10.83;;;;;;;;;;5011884;28;20735;-55
2022/05/06 06:59:42;;;;;;;12.70;10.80;;;;;;;;;;4994396;28;20425;-54
2022/05/06 07:02:09;;;;;;;20.00;10.80;;;;;;;;;;5011750;28;20409;-57
2022/05/06 07:04:35;;;;;;;19.70;11.30;;;;;;;;;;5011627;28;20460;-54
2022/05/06 07:12:30;;;;;;;14.77;10.57;;;;;;;;;;5011525;28;20425;-54
2022/05/06 07:14:56;;;;;;;14.47;11.80;;;;;;;;;;5011575;28;20504;-55
2022/05/06 07:17:23;;;;;;;16.13;10.63;;;;;;;;;;4993860;28;20509;-57
2022/05/06 07:19:49;;;;;;;20.57;11.57;;;;;;;;;;5011304;28;20462;-55
2022/05/06 07:22:15;;;;;;;21.43;11.53;;;;;;;;;;5011610;28;20413;-54
2022/05/06 07:24:41;;;;;;;25.23;12.60;;;;;;;;;;4993729;28;20604;-56
2022/05/06 07:27:08;;;;;;;19.27;11.67;;;;;;;;;;5011433;28;20402;-56
2022/05/06 07:29:34;;;;;;;17.33;10.93;;;;;;;;;;5011250;28;20448;-53
2022/05/06 07:32:00;;;;;;;12.90;9.83;;;;;;;;;;5011246;28;20406;-52
2022/05/06 07:34:26;;;;;;;16.77;11.77;;;;;;;;;;4993666;28;20522;-63
2022/05/06 07:36:52;;;;;;;25.73;12.67;;;;;;;;;;5011185;28;20905;-60
2022/05/06 07:39:18;;;;;;;13.90;10.20;;;;;;;;;;5010265;28;20418;-62
2022/05/06 07:41:44;;;;;;;37.03;14.70;;;;;;;;;;5011275;28;20425;-60
2022/05/06 07:44:11;;;;;;;48.43;19.80;;;;;;;;;;5010983;28;20505;-65
2022/05/06 07:46:37;;;;;;;37.23;15.10;;;;;;;;;;5011016;28;20433;-67
2022/05/06 07:49:04;;;;;;;24.73;11.27;;;;;;;;;;4993393;28;20413;-54
2022/05/06 07:51:30;;;;;;;40.13;16.33;;;;;;;;;;5011033;28;20856;-59
2022/05/06 07:53:59;;;;;;;11.80;7.83;;;;;;;;;;5010939;28;20436;-58
2022/05/06 07:56:26;;;;;;;11.33;7.50;;;;;;;;;;5010744;28;20418;-52
2022/05/06 07:58:54;;;;;;;40.60;19.83;;;;;;;;;;5010754;28;20405;-53
2022/05/06 08:06:54;;;;;;;16.83;9.27;;;;;;;;;;5010817;28;20445;-59
2022/05/06 08:09:23;;;;;;;16.80;8.47;;;;;;;;;;5010860;28;20412;-56
2022/05/06 08:11:49;;;;;;;13.20;8.03;;;;;;;;;;4992930;28;20426;-56
2022/05/06 08:14:16;;;;;;;7.07;6.33;;;;;;;;;;5010658;28;20406;-54
2022/05/06 08:16:43;;;;;;;6.27;5.77;;;;;;;;;;5011017;28;20425;-53
2022/05/06 08:19:12;;;;;;;6.40;5.80;;;;;;;;;;5010579;28;20451;-52
2022/05/06 08:21:39;;;;;;;7.40;6.60;;;;;;;;;;5010335;28;20469;-52
2022/05/06 08:24:05;;;;;;;12.03;6.00;;;;;;;;;;5010410;28;20401;-53
2022/05/06 08:26:31;;;;;;;10.50;6.43;;;;;;;;;;5010477;28;20878;-55
2022/05/06 08:28:59;;;;;;;7.67;6.53;;;;;;;;;;5010447;28;20480;-53
2022/05/06 08:31:25;;;;;;;11.07;6.70;;;;;;;;;;5010370;28;20427;-51
2022/05/06 08:33:51;;;;;;;17.30;7.90;;;;;;;;;;4992874;28;20445;-59
2022/05/06 08:36:17;;;;;;;10.90;9.50;;;;;;;;;;5010420;28;20409;-51
2022/05/06 08:38:44;;;;;;;9.17;7.90;;;;;;;;;;5010371;28;20917;-61
2022/05/06 08:41:11;;;;;;;9.63;8.13;;;;;;;;;;4992760;28;20504;-51
2022/05/06 08:43:38;;;;;;;7.87;7.17;;;;;;;;;;5010009;28;20460;-53
2022/05/06 08:51:36;;;;;;;9.23;8.00;;;;;;;;;;5010107;28;20824;-52
2022/05/06 08:54:02;;;;;;;8.23;7.17;;;;;;;;;;5009845;28;20409;-52
2022/05/06 08:56:29;;;;;;;9.80;7.70;;;;;;;;;;5009890;28;20422;-54
2022/05/06 08:58:55;;;;;;;10.20;7.63;;;;;;;;;;4992289;28;20508;-53
2022/05/06 09:01:22;;;;;;;8.73;7.73;;;;;;;;;;5009772;28;20460;-55
2022/05/06 09:03:48;;;;;;;12.20;7.80;;;;;;;;;;5009813;28;20437;-59
2022/05/06 09:06:18;;;;;;;8.23;7.37;;;;;;;;;;5009728;28;20560;-58
2022/05/06 09:08:45;;;;;;;8.03;7.10;;;;;;;;;;5010123;28;20412;-54
2022/05/06 09:11:11;;;;;;;8.00;7.20;;;;;;;;;;5009703;28;20566;-58
2022/05/06 09:13:49;;;;;;;9.13;7.07;;;;;;;;;;4992043;28;20759;-51
2022/05/06 09:16:40;;;;;;;7.50;6.80;;;;;;;;;;5009798;28;20504;-55
2022/05/06 09:19:13;;;;;;;9.33;7.67;;;;;;;;;;5009714;28;20405;-53
2022/05/06 09:21:41;;;;;;;9.30;7.83;;;;;;;;;;5009255;28;20465;-56
2022/05/06 09:24:17;;;;;;;12.50;6.63;;;;;;;;;;5009496;28;20405;-53
2022/05/06 09:27:00;;;;;;;11.20;7.00;;;;;;;;;;5009923;28;20917;-54
2022/05/06 09:29:33;;;;;;;10.30;7.07;;;;;;;;;;5009424;28;20440;-58
2022/05/06 09:32:12;;;;;;;8.70;7.90;;;;;;;;;;5009486;28;20401;-56
2022/05/06 09:34:38;;;;;;;7.10;6.47;;;;;;;;;;5009627;28;20412;-55
2022/05/06 09:37:05;;;;;;;6.83;6.10;;;;;;;;;;5009402;28;20469;-53
2022/05/06 09:39:31;;;;;;;10.23;7.67;;;;;;;;;;5009287;28;20466;-54
2022/05/06 09:42:04;;;;;;;8.43;6.40;;;;;;;;;;5009330;28;20410;-53
2022/05/06 09:44:31;;;;;;;8.07;7.23;;;;;;;;;;5009236;28;20460;-59
2022/05/06 09:47:08;;;;;;;8.57;7.30;;;;;;;;;;5009250;28;20440;-55
2022/05/06 09:49:43;;;;;;;7.53;6.60;;;;;;;;;;5009122;28;20409;-55
2022/05/06 09:52:16;;;;;;;9.20;7.23;;;;;;;;;;5009254;28;20409;-54
2022/05/06 09:54:43;;;;;;;7.33;6.63;;;;;;;;;;5009404;28;20462;-56
2022/05/06 09:57:12;;;;;;;13.83;6.97;;;;;;;;;;5009259;28;20425;-59
2022/05/06 09:59:38;;;;;;;8.87;6.70;;;;;;;;;;4991721;28;20437;-56
2022/05/06 10:02:05;;;;;;;8.70;7.07;;;;;;;;;;5010316;28;20418;-56
2022/05/06 10:04:31;;;;;;;9.80;7.23;;;;;;;;;;5012528;28;20457;-56
2022/05/06 10:07:01;;;;;;;8.33;7.50;;;;;;;;;;4994998;28;20838;-60
2022/05/06 10:09:30;;;;;;;8.80;7.37;;;;;;;;;;4994889;28;20432;-57
2022/05/06 10:11:58;;;;;;;9.00;6.77;;;;;;;;;;5012615;28;20404;-67
2022/05/06 10:14:25;;;;;;;8.13;6.97;;;;;;;;;;5012419;28;20787;-66
2022/05/06 10:16:51;;;;;;;8.77;6.90;;;;;;;;;;5012445;28;20413;-68
2022/05/06 10:19:28;;;;;;;10.43;6.63;;;;;;;;;;5012420;28;20984;-67
2022/05/06 10:21:55;;;;;;;7.03;6.20;;;;;;;;;;4994703;28;20605;-59
2022/05/06 10:24:21;;;;;;;7.43;6.47;;;;;;;;;;5012146;28;20488;-65
2022/05/06 10:26:49;;;;;;;6.00;5.30;;;;;;;;;;4994780;28;20982;-64
2022/05/06 10:32:25;;;;;;;6.70;5.40;;;;;;;;;;5012389;28;20408;-68
2022/05/06 10:35:04;;;;;;;5.10;4.80;;;;;;;;;;5012259;28;20513;-68
2022/05/06 10:37:37;;;;;;;4.60;4.30;;;;;;;;;;5012235;28;20417;-71
2022/05/06 10:40:22;;;;;;;3.90;3.70;;;;;;;;;;5012153;28;20421;-69
2022/05/06 10:42:48;;;;;;;5.17;4.40;;;;;;;;;;5012092;28;20405;-68
2022/05/06 10:45:23;;;;;;;5.10;4.40;;;;;;;;;;5011951;28;20468;-71
2022/05/06 10:47:50;;;;;;;5.80;5.00;;;;;;;;;;5011905;28;20446;-69
2022/05/06 10:50:19;;;;;;;8.83;4.70;;;;;;;;;;5011979;28;20501;-60
2022/05/06 10:52:45;;;;;;;5.87;4.53;;;;;;;;;;5012140;28;20781;-70
2022/05/06 10:55:13;;;;;;;6.90;3.90;;;;;;;;;;5011998;28;20406;-70
2022/05/06 10:57:48;;;;;;;4.20;3.90;;;;;;;;;;4994276;28;20428;-70
2022/05/06 11:00:15;;;;;;;4.70;3.63;;;;;;;;;;5011867;28;20416;-59
2022/05/06 11:02:41;;;;;;;3.77;3.57;;;;;;;;;;5011701;28;20401;-70
2022/05/06 11:05:11;;;;;;;4.13;3.40;;;;;;;;;;5011669;28;20829;-65
2022/05/06 11:07:39;;;;;;;4.03;3.73;;;;;;;;;;5011505;28;20405;-68
2022/05/06 11:10:11;;;;;;;4.10;3.70;;;;;;;;;;5011325;28;20513;-69
2022/05/06 11:12:38;;;;;;;3.43;3.17;;;;;;;;;;5010901;28;20409;-68
2022/05/06 11:15:05;;;;;;;4.67;3.00;;;;;;;;;;5010825;28;20988;-70
2022/05/06 11:17:32;;;;;;;3.90;3.50;;;;;;;;;;5011655;28;20448;-65
2022/05/06 11:19:58;;;;;;;3.50;3.30;;;;;;;;;;5011340;28;20579;-69
2022/05/06 11:22:27;;;;;;;3.20;3.00;;;;;;;;;;5011729;28;20453;-70
2022/05/06 11:24:56;;;;;;;3.10;3.00;;;;;;;;;;4993864;28;20461;-72
2022/05/06 11:27:22;;;;;;;3.93;3.30;;;;;;;;;;5011356;28;20410;-70
2022/05/06 11:29:55;;;;;;;4.33;3.37;;;;;;;;;;5011376;28;20410;-70
2022/05/06 11:32:21;;;;;;;6.57;3.30;;;;;;;;;;5011278;28;20466;-66
2022/05/06 11:35:08;;;;;;;4.47;3.37;;;;;;;;;;5011128;28;20408;-68
2022/05/06 11:37:34;;;;;;;4.13;3.83;;;;;;;;;;5011020;28;20823;-69
2022/05/06 11:40:18;;;;;;;3.83;3.47;;;;;;;;;;4993470;28;20778;-66
2022/05/06 11:42:47;;;;;;;4.10;3.80;;;;;;;;;;5011251;28;20398;-68
2022/05/06 11:48:09;;;;;;;4.23;3.73;;;;;;;;;;5011172;28;20759;-70
2022/05/06 11:50:36;;;;;;;4.37;4.00;;;;;;;;;;4993176;28;20406;-66
2022/05/06 11:53:08;;;;;;;4.17;3.87;;;;;;;;;;5011137;28;20449;-67
2022/05/06 11:55:38;;;;;;;4.00;3.20;;;;;;;;;;4993199;28;20410;-70
2022/05/06 11:58:08;;;;;;;3.90;3.57;;;;;;;;;;5010896;28;20462;-69
2022/05/06 12:00:34;;;;;;;3.73;3.33;;;;;;;;;;4993389;28;20506;-57
2022/05/06 12:03:04;;;;;;;3.67;3.27;;;;;;;;;;4993201;28;20417;-56
2022/05/06 12:05:31;;;;;;;4.70;3.20;;;;;;;;;;5010627;28;20559;-60
2022/05/06 12:07:57;;;;;;;3.37;3.17;;;;;;;;;;5010747;28;20409;-63
2022/05/06 12:10:24;;;;;;;3.10;2.73;;;;;;;;;;5010667;28;20414;-55
2022/05/06 12:12:53;;;;;;;2.70;2.60;;;;;;;;;;4993341;28;20906;-56
2022/05/06 12:15:19;;;;;;;3.30;3.10;;;;;;;;;;5010462;28;20413;-53
2022/05/06 12:17:45;;;;;;;3.10;2.90;;;;;;;;;;5010900;28;20917;-59
2022/05/06 12:20:30;;;;;;;2.67;2.47;;;;;;;;;;5010606;28;20454;-58
2022/05/06 12:22:59;;;;;;;2.60;2.07;;;;;;;;;;5010491;28;20417;-53
2022/05/06 12:25:25;;;;;;;2.47;2.27;;;;;;;;;;4992160;28;20484;-60
2022/05/06 12:28:08;;;;;;;6.60;2.30;;;;;;;;;;5010410;28;20417;-59
2022/05/06 12:30:35;;;;;;;2.53;2.30;;;;;;;;;;5010415;28;20413;-54
2022/05/06 12:33:12;;;;;;;3.20;2.43;;;;;;;;;;4992893;28;20417;-56
2022/05/06 12:35:56;;;;;;;2.40;2.30;;;;;;;;;;5010277;28;20445;-56
2022/05/06 12:38:22;;;;;;;2.83;2.67;;;;;;;;;;5010273;28;20425;-52
2022/05/06 12:40:50;;;;;;;10.83;2.70;;;;;;;;;;5010162;28;20405;-57
2022/05/06 12:43:16;;;;;;;3.50;2.70;;;;;;;;;;5010238;28;20747;-59
2022/05/06 12:45:52;;;;;;;3.43;3.20;;;;;;;;;;4992606;28;21091;-56
2022/05/06 12:51:03;;;;;;;3.53;2.93;;;;;;;;;;5010214;28;21020;-57
2022/05/06 12:53:29;;;;;;;6.67;3.17;;;;;;;;;;5010000;28;20929;-58
2022/05/06 12:55:55;;;;;;;4.07;3.20;;;;;;;;;;5009971;28;20418;-52
2022/05/06 12:58:27;;;;;;;5.33;3.40;;;;;;;;;;5010115;28;20405;-56
2022/05/06 13:00:54;;;;;;;3.20;3.10;;;;;;;;;;5009918;28;20512;-53
2022/05/06 13:03:20;;;;;;;4.13;3.33;;;;;;;;;;5009842;28;20409;-58
2022/05/06 13:05:46;;;;;;;3.73;3.43;;;;;;;;;;5009927;28;20461;-57
2022/05/06 13:08:12;;;;;;;6.67;3.40;;;;;;;;;;5010064;28;21411;-58
2022/05/06 13:10:38;;;;;;;5.23;3.37;;;;;;;;;;5009818;28;20432;-59
2022/05/06 13:13:04;;;;;;;3.10;3.00;;;;;;;;;;5009732;28;20581;-56
2022/05/06 13:15:30;;;;;;;2.87;2.67;;;;;;;;;;5009800;28;20496;-63
2022/05/06 13:17:59;;;;;;;3.03;2.83;;;;;;;;;;5009604;28;20525;-59
2022/05/06 13:20:25;;;;;;;3.07;2.77;;;;;;;;;;5009437;28;20887;-57
2022/05/06 13:22:51;;;;;;;6.50;2.97;;;;;;;;;;5009701;28;20412;-52
2022/05/06 13:25:17;;;;;;;2.43;2.30;;;;;;;;;;5009594;28;20516;-60
2022/05/06 13:27:43;;;;;;;3.10;2.80;;;;;;;;;;5009746;28;20432;-69
2022/05/06 13:30:09;;;;;;;2.37;2.27;;;;;;;;;;5009429;28;20414;-64
2022/05/06 13:32:36;;;;;;;5.33;2.20;;;;;;;;;;5009432;28;20470;-63
2022/05/06 13:35:02;;;;;;;2.10;2.00;;;;;;;;;;5009276;28;20507;-62
2022/05/06 13:37:28;;;;;;;3.30;2.70;;;;;;;;;;5011358;28;20420;-59
2022/05/06 13:39:54;;;;;;;4.60;3.03;;;;;;;;;;5013080;28;20735;-60
2022/05/06 13:42:20;;;;;;;2.87;2.67;;;;;;;;;;5012914;28;20411;-59
2022/05/06 13:44:46;;;;;;;4.63;3.17;;;;;;;;;;5012946;28;20457;-63
2022/05/06 13:47:13;;;;;;;3.03;2.87;;;;;;;;;;5012928;28;20456;-61
2022/05/06 13:49:41;;;;;;;2.93;2.83;;;;;;;;;;5012792;28;20488;-65
2022/05/06 13:52:07;;;;;;;6.03;3.30;;;;;;;;;;5012617;28;20398;-54
2022/05/06 13:54:33;;;;;;;4.60;3.50;;;;;;;;;;5012710;28;20924;-54
2022/05/06 13:59:43;;;;;;;6.07;3.40;;;;;;;;;;5012879;28;20417;-62
2022/05/06 14:02:09;;;;;;;3.73;3.53;;;;;;;;;;5012521;28;20762;-56
2022/05/06 14:04:38;;;;;;;3.87;3.57;;;;;;;;;;4994698;28;20214;-61
2022/05/06 14:07:04;;;;;;;6.07;3.80;;;;;;;;;;5012317;28;20452;-60
2022/05/06 14:09:30;;;;;;;3.70;3.40;;;;;;;;;;5012596;28;20423;-57
2022/05/06 14:11:56;;;;;;;5.63;3.37;;;;;;;;;;5012529;28;20841;-60
2022/05/06 14:14:22;;;;;;;3.90;3.70;;;;;;;;;;5012261;28;20437;-59
2022/05/06 14:16:48;;;;;;;4.30;4.00;;;;;;;;;;5012352;28;20470;-56
2022/05/06 14:19:14;;;;;;;4.30;4.00;;;;;;;;;;5012562;28;20190;-65
2022/05/06 14:21:40;;;;;;;4.37;3.87;;;;;;;;;;5012120;28;20812;-58
2022/05/06 14:24:08;;;;;;;6.90;4.07;;;;;;;;;;5012245;28;20459;-61
2022/05/06 14:26:34;;;;;;;7.27;3.97;;;;;;;;;;4994921;28;20836;-58
2022/05/06 14:29:01;;;;;;;4.37;3.33;;;;;;;;;;5012172;28;20397;-56
2022/05/06 14:31:27;;;;;;;5.07;4.53;;;;;;;;;;5012241;28;20216;-56
2022/05/06 14:33:53;;;;;;;4.50;3.50;;;;;;;;;;4994565;28;20417;-62
2022/05/06 14:36:21;;;;;;;4.13;3.80;;;;;;;;;;5011956;28;20470;-65
2022/05/06 14:38:48;;;;;;;3.90;3.60;;;;;;;;;;5012195;28;20413;-60
2022/05/06 14:41:17;;;;;;;5.80;3.40;;;;;;;;;;5012190;28;20401;-56
2022/05/06 14:43:43;;;;;;;4.00;3.70;;;;;;;;;;5012084;28;20474;-57
2022/05/06 14:46:09;;;;;;;7.13;3.50;;;;;;;;;;5011937;28;20465;-52
2022/05/06 14:48:38;;;;;;;3.70;3.40;;;;;;;;;;5011690;28;20433;-58
2022/05/06 14:51:04;;;;;;;5.13;3.50;;;;;;;;;;4994314;28;20428;-53
2022/05/06 14:53:31;;;;;;;3.83;3.53;;;;;;;;;;5011848;28;20413;-53
2022/05/06 14:55:56;;;;;;;4.13;3.70;;;;;;;;;;5011914;28;20508;-52
2022/05/06 14:58:23;;;;;;;7.83;4.47;;;;;;;;;;5011869;28;20444;-52
2022/05/06 15:00:49;;;;;;;9.47;7.50;;;;;;;;;;5011644;28;20425;-58
2022/05/06 15:03:15;;;;;;;8.33;5.90;;;;;;;;;;5011635;28;20418;-55
2022/05/06 15:05:41;;;;;;;3.33;3.03;;;;;;;;;;4993889;28;20625;-57
2022/05/06 15:08:08;;;;;;;7.50;5.53;;;;;;;;;;5011656;28;20174;-54
2022/05/06 15:10:34;;;;;;;4.73;4.17;;;;;;;;;;4993995;28;20449;-60
2022/05/06 15:13:00;;;;;;;3.70;3.43;;;;;;;;;;5011511;28;20402;-55
2022/05/06 15:15:26;;;;;;;8.20;4.37;;;;;;;;;;4993812;28;20439;-69
2022/05/06 15:17:52;;;;;;;4.57;4.10;;;;;;;;;;5011351;28;20406;-59
2022/05/06 15:20:21;;;;;;;4.53;4.13;;;;;;;;;;5011157;28;20461;-59
2022/05/06 15:22:48;;;;;;;3.77;3.40;;;;;;;;;;5011399;28;20463;-62
2022/05/06 15:25:14;;;;;;;4.40;4.00;;;;;;;;;;5011337;28;20534;-62